createdAt,value
2019-06-15T00:01:07.622Z,95995.33
2019-06-15T00:03:39.402Z,95986.36
2019-06-15T00:06:11.245Z,95977.86
2019-06-15T00:08:43.705Z,95976.82
2019-06-15T00:11:15.471Z,95975.27
2019-06-15T00:13:47.266Z,95964.41
2019-06-15T00:16:19.025Z,95955.69
2019-06-15T00:18:50.804Z,95951.53
2019-06-15T00:21:22.585Z,95947.54
2019-06-15T00:23:54.360Z,95948.52
2019-06-15T00:26:26.127Z,95934.91
2019-06-15T00:28:57.912Z,95938.25
2019-06-15T00:31:29.688Z,95920.82
2019-06-15T00:34:02.737Z,95910.17
2019-06-15T00:36:34.521Z,95904.55
2019-06-15T00:39:09.013Z,95896.57
2019-06-15T00:41:40.867Z,95882.50
2019-06-15T00:44:12.642Z,95858.20
2019-06-15T00:46:44.427Z,95853.91
2019-06-15T00:49:16.206Z,95836.87
2019-06-15T00:51:48.045Z,95829.92
2019-06-15T00:54:19.830Z,95851.63
2019-06-15T00:56:51.914Z,95903.22
2019-06-15T00:59:23.684Z,95905.39
2019-06-15T01:01:55.476Z,95908.78
2019-06-15T01:04:27.374Z,95926.66
2019-06-15T01:06:59.122Z,95915.29
2019-06-15T01:09:30.912Z,95898.83
2019-06-15T01:12:02.699Z,95902.36
2019-06-15T01:14:34.471Z,95893.09
2019-06-15T01:17:06.251Z,95910.91
2019-06-15T01:19:38.025Z,95899.83
2019-06-15T01:22:09.818Z,95903.52
2019-06-15T01:24:41.591Z,95888.45
2019-06-15T01:27:13.363Z,95881.72
2019-06-15T01:29:45.138Z,95877.47
2019-06-15T01:32:16.921Z,95876.99
2019-06-15T01:34:48.698Z,95873.69
2019-06-15T01:37:20.471Z,95856.86
2019-06-15T01:39:52.252Z,95844.55
2019-06-15T01:42:24.028Z,95848.64
2019-06-15T01:44:55.813Z,95841.31
2019-06-15T01:47:27.592Z,95844.12
2019-06-15T01:49:59.400Z,95826.92
2019-06-15T01:52:31.166Z,95833.05
2019-06-15T01:55:03.125Z,95821.39
2019-06-15T01:57:34.980Z,95824.33
2019-06-15T02:00:09.082Z,95824.61
2019-06-15T02:02:40.921Z,95830.50
2019-06-15T02:05:12.761Z,95838.69
2019-06-15T02:07:44.543Z,95840.92
2019-06-15T02:10:18.398Z,95832.59
2019-06-15T02:12:50.645Z,95821.59
2019-06-15T02:15:22.488Z,95820.03
2019-06-15T02:17:54.276Z,95822.98
2019-06-15T02:20:26.059Z,95823.80
2019-06-15T02:22:58.151Z,95824.73
2019-06-15T02:25:36.259Z,95823.53
2019-06-15T02:28:05.938Z,95823.95
2019-06-15T02:30:37.781Z,95817.62
2019-06-15T02:33:09.573Z,95811.22
2019-06-15T02:35:42.141Z,95820.45
2019-06-15T02:38:13.937Z,95817.61
2019-06-15T02:40:46.682Z,95808.04
2019-06-15T02:43:18.529Z,95812.69
2019-06-15T02:45:50.304Z,95810.75
2019-06-15T02:48:22.103Z,95815.70
2019-06-15T02:50:54.248Z,95808.66
2019-06-15T02:53:26.102Z,95812.85
2019-06-15T02:55:57.880Z,95809.38
2019-06-15T02:58:29.674Z,95813.61
2019-06-15T03:01:08.842Z,95814.47
2019-06-15T03:03:40.689Z,95816.72
2019-06-15T03:06:12.456Z,95814.67
2019-06-15T03:08:44.378Z,95813.35
2019-06-15T03:11:16.242Z,95817.98
2019-06-15T03:13:48.570Z,95828.20
2019-06-15T03:16:21.425Z,95827.89
2019-06-15T03:18:53.208Z,95837.02
2019-06-15T03:21:24.984Z,95833.14
2019-06-15T03:23:56.766Z,95837.93
2019-06-15T03:26:28.536Z,95837.32
2019-06-15T03:29:00.325Z,95842.22
2019-06-15T03:31:32.181Z,95848.48
2019-06-15T03:34:04.028Z,95853.93
2019-06-15T03:36:35.806Z,95849.13
2019-06-15T03:39:08.234Z,95859.64
2019-06-15T03:41:40.009Z,95861.45
2019-06-15T03:44:11.792Z,95870.70
2019-06-15T03:46:43.609Z,95867.91
2019-06-15T03:49:15.375Z,95879.13
2019-06-15T03:51:47.241Z,95888.76
2019-06-15T03:54:19.028Z,95899.54
2019-06-15T03:56:50.798Z,95900.86
2019-06-15T03:59:22.581Z,95920.36
2019-06-15T04:01:54.378Z,95922.46
2019-06-15T04:04:26.162Z,95935.77
2019-06-15T04:06:57.938Z,95944.78
2019-06-15T04:09:29.798Z,95953.28
2019-06-15T04:12:01.585Z,95967.03
2019-06-15T04:14:33.362Z,95970.22
2019-06-15T04:17:05.134Z,95991.11
2019-06-15T04:19:36.985Z,95994.05
2019-06-15T04:22:11.354Z,95992.08
2019-06-15T04:24:43.152Z,95996.03
2019-06-15T04:27:14.927Z,95997.42
2019-06-15T04:29:46.706Z,96000.45
2019-06-15T04:32:18.484Z,96012.74
2019-06-15T04:34:51.971Z,96016.21
2019-06-15T04:37:23.740Z,96019.48
2019-06-15T04:39:55.532Z,96028.56
2019-06-15T04:42:27.327Z,96031.09
2019-06-15T04:44:59.115Z,96041.27
2019-06-15T04:47:30.957Z,96049.17
2019-06-15T04:50:02.820Z,96053.02
2019-06-15T04:52:34.922Z,96066.09
2019-06-15T04:55:08.316Z,96072.27
2019-06-15T04:57:40.095Z,96079.88
2019-06-15T05:00:12.332Z,96079.16
2019-06-15T05:02:44.102Z,96087.38
2019-06-15T05:05:15.882Z,96101.59
2019-06-15T05:07:47.671Z,96107.70
2019-06-15T05:10:19.729Z,96106.81
2019-06-15T05:12:51.499Z,96118.75
2019-06-15T05:15:23.289Z,96113.07
2019-06-15T05:17:55.065Z,96106.63
2019-06-15T05:20:26.865Z,96104.78
2019-06-15T05:22:58.659Z,96104.34
2019-06-15T05:25:30.409Z,96108.03
2019-06-15T05:28:02.248Z,96119.35
2019-06-15T05:30:34.039Z,96136.36
2019-06-15T05:33:05.949Z,96143.83
2019-06-15T05:35:37.736Z,96160.99
2019-06-15T05:38:11.122Z,96180.66
2019-06-15T05:40:42.912Z,96195.88
2019-06-15T05:43:14.686Z,96182.62
2019-06-15T05:45:46.473Z,96195.83
2019-06-15T05:48:18.386Z,96201.00
2019-06-15T05:50:50.203Z,96202.28
2019-06-15T05:53:22.038Z,96213.47
2019-06-15T05:55:53.911Z,96216.16
2019-06-15T05:58:25.696Z,96217.58
2019-06-15T06:00:57.479Z,96221.73
2019-06-15T06:03:29.255Z,96232.11
2019-06-15T06:06:01.122Z,96224.74
2019-06-15T06:08:32.917Z,96242.39
2019-06-15T06:11:04.774Z,96220.23
2019-06-15T06:13:36.547Z,96219.36
2019-06-15T06:16:08.333Z,96234.02
2019-06-15T06:18:40.110Z,96232.10
2019-06-15T06:21:11.898Z,96233.06
2019-06-15T06:23:43.668Z,96232.24
2019-06-15T06:26:15.474Z,96242.03
2019-06-15T06:28:56.812Z,96233.75
2019-06-15T06:31:20.732Z,96237.20
2019-06-15T06:33:52.510Z,96245.88
2019-06-15T06:36:24.287Z,96252.09
2019-06-15T06:38:56.063Z,96248.83
2019-06-15T06:41:28.149Z,96260.73
2019-06-15T06:43:59.936Z,96262.40
2019-06-15T06:46:31.718Z,96261.06
2019-06-15T06:49:03.504Z,96265.91
2019-06-15T06:51:35.284Z,96268.42
2019-06-15T06:54:07.057Z,96273.34
2019-06-15T06:56:39.882Z,96277.42
2019-06-15T06:59:11.723Z,96284.19
2019-06-15T07:01:43.515Z,96292.38
2019-06-15T07:04:15.275Z,96301.45
2019-06-15T07:06:47.062Z,96298.27
2019-06-15T07:09:19.098Z,96291.19
2019-06-15T07:11:50.894Z,96297.28
2019-06-15T07:14:22.740Z,96292.68
2019-06-15T07:16:54.522Z,96298.95
2019-06-15T07:19:26.301Z,96301.27
2019-06-15T07:21:58.088Z,96298.90
2019-06-15T07:24:29.855Z,96305.10
2019-06-15T07:27:01.638Z,96307.45
2019-06-15T07:29:33.399Z,96315.72
2019-06-15T07:32:05.251Z,96325.97
2019-06-15T07:34:37.060Z,96315.78
2019-06-15T07:37:08.913Z,96317.02
2019-06-15T07:39:40.848Z,96322.78
2019-06-15T07:42:12.603Z,96323.89
2019-06-15T07:44:44.379Z,96323.97
2019-06-15T07:47:16.194Z,96336.79
2019-06-15T07:49:47.958Z,96337.45
2019-06-15T07:52:19.733Z,96329.34
2019-06-15T07:54:52.268Z,96336.38
2019-06-15T07:57:24.048Z,96341.07
2019-06-15T07:59:56.785Z,96350.73
2019-06-15T08:02:28.561Z,96369.12
2019-06-15T08:05:00.325Z,96373.02
2019-06-15T08:07:32.098Z,96372.19
2019-06-15T08:10:07.716Z,96378.58
2019-06-15T08:12:39.490Z,96378.16
2019-06-15T08:15:12.134Z,96381.77
2019-06-15T08:17:45.599Z,96383.59
2019-06-15T08:20:23.237Z,96382.22
2019-06-15T08:22:55.019Z,96383.63
2019-06-15T08:25:26.789Z,96385.10
2019-06-15T08:27:58.662Z,96385.70
2019-06-15T08:30:35.119Z,96402.67
2019-06-15T08:33:06.896Z,96389.39
2019-06-15T08:35:38.658Z,96387.94
2019-06-15T08:38:11.570Z,96385.80
2019-06-15T08:40:43.489Z,96396.16
2019-06-15T08:43:15.260Z,96404.02
2019-06-15T08:45:47.027Z,96408.78
2019-06-15T08:48:18.806Z,96409.55
2019-06-15T08:50:50.566Z,96408.48
2019-06-15T08:53:22.342Z,96404.08
2019-06-15T08:55:54.116Z,96427.91
2019-06-15T08:58:25.895Z,96420.00
2019-06-15T09:00:57.738Z,96425.63
2019-06-15T09:03:29.512Z,96422.19
2019-06-15T09:06:01.284Z,96429.82
2019-06-15T09:08:33.112Z,96431.98
2019-06-15T09:11:04.887Z,96449.64
2019-06-15T09:13:36.671Z,96442.30
2019-06-15T09:16:08.428Z,96449.13
2019-06-15T09:18:40.277Z,96453.62
2019-06-15T09:21:12.047Z,96458.91
2019-06-15T09:23:43.821Z,96461.03
2019-06-15T09:26:15.591Z,96469.73
2019-06-15T09:28:47.371Z,96467.57
2019-06-15T09:31:19.133Z,96465.22
2019-06-15T09:33:50.905Z,96470.95
2019-06-15T09:36:22.675Z,96477.33
2019-06-15T09:38:54.452Z,96459.61
2019-06-15T09:41:26.216Z,96476.59
2019-06-15T09:43:57.991Z,96477.78
2019-06-15T09:46:29.775Z,96478.27
2019-06-15T09:49:02.528Z,96478.78
2019-06-15T09:51:34.293Z,96478.49
2019-06-15T09:54:06.141Z,96478.13
2019-06-15T09:56:37.907Z,96487.81
2019-06-15T09:59:09.681Z,96482.91
2019-06-15T10:01:42.513Z,96483.90
2019-06-15T10:04:14.309Z,96487.80
2019-06-15T10:06:46.057Z,96487.23
2019-06-15T10:09:17.843Z,96497.06
2019-06-15T10:11:50.241Z,96499.67
2019-06-15T10:14:22.042Z,96497.38
2019-06-15T10:16:53.810Z,96496.96
2019-06-15T10:19:25.608Z,96505.33
2019-06-15T10:21:57.390Z,96497.81
2019-06-15T10:24:29.205Z,96496.81
2019-06-15T10:27:00.982Z,96507.22
2019-06-15T10:29:41.624Z,96512.09
2019-06-15T10:32:06.230Z,96499.81
2019-06-15T10:34:38.033Z,96512.20
2019-06-15T10:37:11.014Z,96516.78
2019-06-15T10:39:43.265Z,96523.68
2019-06-15T10:42:15.032Z,96518.03
2019-06-15T10:44:47.091Z,96525.69
2019-06-15T10:47:18.861Z,96514.32
2019-06-15T10:49:50.639Z,96512.78
2019-06-15T10:52:22.412Z,96517.42
2019-06-15T10:54:54.191Z,96517.64
2019-06-15T10:57:25.964Z,96517.22
2019-06-15T10:59:57.950Z,96517.53
2019-06-15T11:02:29.888Z,96519.38
2019-06-15T11:05:01.736Z,96526.70
2019-06-15T11:07:34.642Z,96523.84
2019-06-15T11:10:09.966Z,96527.52
2019-06-15T11:12:46.323Z,96525.64
2019-06-15T11:15:16.261Z,96534.37
2019-06-15T11:17:48.226Z,96529.72
2019-06-15T11:20:20.072Z,96530.30
2019-06-15T11:22:51.832Z,96531.45
2019-06-15T11:25:23.608Z,96538.40
2019-06-15T11:27:55.375Z,96537.11
2019-06-15T11:30:27.159Z,96537.18
2019-06-15T11:32:58.936Z,96540.50
2019-06-15T11:35:30.721Z,96543.92
2019-06-15T11:38:03.537Z,96543.57
2019-06-15T11:40:35.318Z,96542.58
2019-06-15T11:43:07.077Z,96547.89
2019-06-15T11:45:38.859Z,96550.30
2019-06-15T11:48:10.917Z,96550.83
2019-06-15T11:50:42.731Z,96550.63
2019-06-15T11:53:14.496Z,96540.94
2019-06-15T11:55:46.272Z,96544.88
2019-06-15T11:58:18.037Z,96552.19
2019-06-15T12:00:49.891Z,96543.02
2019-06-15T12:03:21.665Z,96548.11
2019-06-15T12:05:53.446Z,96547.16
2019-06-15T12:08:25.238Z,96544.97
2019-06-15T12:10:56.983Z,96546.50
2019-06-15T12:13:28.752Z,96543.67
2019-06-15T12:16:00.825Z,96543.97
2019-06-15T12:18:32.586Z,96549.39
2019-06-15T12:21:04.382Z,96542.91
2019-06-15T12:23:36.147Z,96537.06
2019-06-15T12:26:07.926Z,96544.11
2019-06-15T12:28:39.765Z,96536.39
2019-06-15T12:31:13.020Z,96545.84
2019-06-15T12:33:44.795Z,96540.82
2019-06-15T12:36:19.531Z,96533.45
2019-06-15T12:38:50.121Z,96536.92
2019-06-15T12:41:21.911Z,96539.13
2019-06-15T12:43:53.668Z,96538.27
2019-06-15T12:46:26.520Z,96542.13
2019-06-15T12:48:58.289Z,96546.13
2019-06-15T12:51:30.095Z,96545.88
2019-06-15T12:54:01.984Z,96543.50
2019-06-15T12:56:33.765Z,96541.45
2019-06-15T12:59:05.603Z,96541.77
2019-06-15T13:01:37.438Z,96546.94
2019-06-15T13:04:09.199Z,96545.72
2019-06-15T13:06:40.973Z,96524.35
2019-06-15T13:09:12.743Z,96536.34
2019-06-15T13:11:44.514Z,96535.08
2019-06-15T13:14:16.287Z,96534.76
2019-06-15T13:16:48.247Z,96533.56
2019-06-15T13:19:20.105Z,96540.19
2019-06-15T13:21:51.878Z,96529.83
2019-06-15T13:24:23.640Z,96537.30
2019-06-15T13:26:55.435Z,96537.12
2019-06-15T13:29:27.195Z,96537.64
2019-06-15T13:31:58.975Z,96540.94
2019-06-15T13:34:30.740Z,96543.72
2019-06-15T13:37:02.515Z,96540.36
2019-06-15T13:39:34.295Z,96540.23
2019-06-15T13:42:06.108Z,96537.53
2019-06-15T13:44:37.842Z,96536.38
2019-06-15T13:47:09.960Z,96524.34
2019-06-15T13:49:41.723Z,96529.89
2019-06-15T13:52:13.500Z,96541.34
2019-06-15T13:54:45.269Z,96538.61
2019-06-15T13:57:17.123Z,96543.13
2019-06-15T13:59:48.897Z,96540.33
2019-06-15T14:02:20.667Z,96542.11
2019-06-15T14:04:53.575Z,96547.83
2019-06-15T14:07:25.361Z,96549.24
2019-06-15T14:09:57.130Z,96545.60
2019-06-15T14:12:28.914Z,96556.72
2019-06-15T14:15:01.747Z,96548.52
2019-06-15T14:17:33.612Z,96542.23
2019-06-15T14:20:07.023Z,96540.58
2019-06-15T14:22:38.796Z,96551.34
2019-06-15T14:25:11.552Z,96541.19
2019-06-15T14:27:43.333Z,96541.18
2019-06-15T14:30:15.539Z,96541.89
2019-06-15T14:32:47.287Z,96535.64
2019-06-15T14:35:19.125Z,96537.49
2019-06-15T14:37:50.905Z,96536.34
2019-06-15T14:40:22.668Z,96532.87
2019-06-15T14:42:54.447Z,96539.73
2019-06-15T14:45:26.479Z,96540.72
2019-06-15T14:47:58.257Z,96532.53
2019-06-15T14:50:30.024Z,96535.02
2019-06-15T14:53:01.819Z,96531.06
2019-06-15T14:55:36.658Z,96519.52
2019-06-15T14:58:08.591Z,96523.06
2019-06-15T15:00:40.352Z,96529.03
2019-06-15T15:03:12.129Z,96521.59
2019-06-15T15:05:43.911Z,96530.34
2019-06-15T15:08:15.815Z,96527.70
2019-06-15T15:10:47.578Z,96520.27
2019-06-15T15:13:19.355Z,96525.47
2019-06-15T15:15:53.126Z,96518.97
2019-06-15T15:18:27.059Z,96518.95
2019-06-15T15:20:58.616Z,96522.39
2019-06-15T15:23:30.389Z,96517.13
2019-06-15T15:26:02.174Z,96513.10
2019-06-15T15:28:36.355Z,96525.16
2019-06-15T15:31:07.410Z,96512.29
2019-06-15T15:33:40.834Z,96506.65
2019-06-15T15:36:12.611Z,96508.35
2019-06-15T15:38:46.648Z,96505.97
2019-06-15T15:41:17.856Z,96500.80
2019-06-15T15:43:49.626Z,96499.76
2019-06-15T15:46:21.405Z,96500.79
2019-06-15T15:48:53.168Z,96510.23
2019-06-15T15:51:26.174Z,96505.31
2019-06-15T15:53:58.085Z,96510.00
2019-06-15T15:56:29.851Z,96499.59
2019-06-15T15:59:01.922Z,96488.56
2019-06-15T16:01:33.961Z,96492.66
2019-06-15T16:04:06.708Z,96499.05
2019-06-15T16:06:39.445Z,96504.34
2019-06-15T16:09:11.230Z,96500.91
2019-06-15T16:11:43.016Z,96502.42
2019-06-15T16:14:16.434Z,96511.00
2019-06-15T16:16:48.468Z,96514.61
2019-06-15T16:19:20.252Z,96518.52
2019-06-15T16:21:52.018Z,96522.55
2019-06-15T16:24:23.792Z,96515.03
2019-06-15T16:26:56.643Z,96514.38
2019-06-15T16:29:28.530Z,96513.50
2019-06-15T16:32:00.305Z,96512.30
2019-06-15T16:34:32.078Z,96512.44
2019-06-15T16:37:06.409Z,96510.41
2019-06-15T16:39:37.359Z,96509.86
2019-06-15T16:42:09.121Z,96504.68
2019-06-15T16:44:40.902Z,96507.52
2019-06-15T16:47:12.662Z,96504.65
2019-06-15T16:49:46.397Z,96506.41
2019-06-15T16:52:18.040Z,96507.91
2019-06-15T16:54:49.882Z,96510.16
2019-06-15T16:57:21.661Z,96506.78
2019-06-15T16:59:55.978Z,96505.92
2019-06-15T17:02:26.873Z,96507.27
2019-06-15T17:04:58.648Z,96509.94
2019-06-15T17:07:30.671Z,96517.06
2019-06-15T17:10:02.473Z,96515.76
2019-06-15T17:12:37.023Z,96513.72
2019-06-15T17:15:08.085Z,96509.47
2019-06-15T17:17:40.018Z,96516.21
2019-06-15T17:20:11.978Z,96514.94
2019-06-15T17:22:43.740Z,96512.21
2019-06-15T17:25:16.608Z,96511.78
2019-06-15T17:27:48.651Z,96517.00
2019-06-15T17:30:20.583Z,96515.37
2019-06-15T17:32:52.333Z,96511.46
2019-06-15T17:35:24.108Z,96512.48
2019-06-15T17:37:56.435Z,96510.18
2019-06-15T17:40:28.250Z,96504.23
2019-06-15T17:43:00.094Z,96506.01
2019-06-15T17:45:31.861Z,96509.47
2019-06-15T17:48:06.333Z,96507.58
2019-06-15T17:50:44.021Z,96506.94
2019-06-15T17:53:16.980Z,96505.58
2019-06-15T17:55:48.963Z,96502.97
2019-06-15T17:58:20.724Z,96499.45
2019-06-15T18:00:52.501Z,96494.63
2019-06-15T18:03:26.076Z,96490.17
2019-06-15T18:05:58.247Z,96491.77
2019-06-15T18:08:30.194Z,96493.31
2019-06-15T18:11:01.973Z,96488.09
2019-06-15T18:13:33.786Z,96486.56
2019-06-15T18:16:06.702Z,96488.10
2019-06-15T18:18:38.634Z,96476.62
2019-06-15T18:21:11.226Z,96481.10
2019-06-15T18:23:43.033Z,96482.53
2019-06-15T18:26:16.219Z,96483.13
2019-06-15T18:28:48.255Z,96489.16
2019-06-15T18:31:20.033Z,96492.23
2019-06-15T18:34:06.457Z,96481.16
2019-06-15T18:36:26.698Z,96478.14
2019-06-15T18:38:58.594Z,96482.47
2019-06-15T18:41:31.351Z,96480.08
2019-06-15T18:44:03.123Z,96476.45
2019-06-15T18:46:36.747Z,96469.18
2019-06-15T18:49:08.563Z,96480.73
2019-06-15T18:51:40.324Z,96481.27
2019-06-15T18:54:12.088Z,96476.33
2019-06-15T18:56:45.990Z,96467.09
2019-06-15T18:59:17.330Z,96471.75
2019-06-15T19:01:49.104Z,96470.26
2019-06-15T19:04:27.220Z,96466.28
2019-06-15T19:06:56.144Z,96469.72
2019-06-15T19:09:28.793Z,96464.20
2019-06-15T19:12:00.562Z,96464.22
2019-06-15T19:14:32.341Z,96457.64
2019-06-15T19:17:06.075Z,96463.08
2019-06-15T19:19:38.550Z,96456.28
2019-06-15T19:22:10.953Z,96458.08
2019-06-15T19:24:42.717Z,96463.02
2019-06-15T19:27:16.117Z,96461.73
2019-06-15T19:29:48.040Z,96456.86
2019-06-15T19:32:19.821Z,96460.44
2019-06-15T19:34:51.663Z,96469.53
2019-06-15T19:37:25.955Z,96478.89
2019-06-15T19:39:56.900Z,96489.83
2019-06-15T19:42:28.667Z,96491.31
2019-06-15T19:45:00.439Z,96489.63
2019-06-15T19:47:32.224Z,96500.25
2019-06-15T19:50:06.566Z,96507.98
2019-06-15T19:52:38.431Z,96512.58
2019-06-15T19:55:11.377Z,96511.68
2019-06-15T19:57:43.162Z,96511.81
2019-06-15T20:00:17.084Z,96504.08
2019-06-15T20:02:49.156Z,96508.05
2019-06-15T20:05:21.891Z,96523.03
2019-06-15T20:07:53.674Z,96524.06
2019-06-15T20:10:26.599Z,96516.89
2019-06-15T20:12:58.545Z,96519.00
2019-06-15T20:15:30.316Z,96521.81
2019-06-15T20:18:02.110Z,96518.80
2019-06-15T20:20:36.332Z,96522.59
2019-06-15T20:23:07.566Z,96524.02
2019-06-15T20:25:39.418Z,96528.47
2019-06-15T20:28:11.226Z,96516.25
2019-06-15T20:30:43.011Z,96516.39
2019-06-15T20:33:16.665Z,96520.46
2019-06-15T20:35:48.281Z,96516.81
2019-06-15T20:38:20.059Z,96513.05
2019-06-15T20:40:51.833Z,96523.84
2019-06-15T20:43:23.778Z,96530.03
2019-06-15T20:45:56.203Z,96545.12
2019-06-15T20:48:28.262Z,96544.84
2019-06-15T20:51:00.043Z,96538.91
2019-06-15T20:53:32.002Z,96547.33
2019-06-15T20:56:06.447Z,96548.14
2019-06-15T20:58:37.560Z,96550.58
2019-06-15T21:01:09.388Z,96553.05
2019-06-15T21:03:43.166Z,96555.11
2019-06-15T21:06:16.871Z,96560.71
2019-06-15T21:08:49.214Z,96555.84
2019-06-15T21:11:21.011Z,96547.47
2019-06-15T21:13:52.801Z,96550.33
2019-06-15T21:16:26.250Z,96551.04
2019-06-15T21:18:58.151Z,96560.16
2019-06-15T21:21:29.945Z,96574.59
2019-06-15T21:24:01.792Z,96584.91
2019-06-15T21:26:33.664Z,96593.80
2019-06-15T21:29:06.680Z,96597.70
2019-06-15T21:31:38.607Z,96605.05
2019-06-15T21:34:10.876Z,96606.78
2019-06-15T21:36:42.678Z,96620.00
2019-06-15T21:39:15.413Z,96624.30
2019-06-15T21:41:47.181Z,96621.65
2019-06-15T21:44:18.977Z,96632.80
2019-06-15T21:46:50.761Z,96635.14
2019-06-15T21:49:22.543Z,96640.47
2019-06-15T21:51:56.444Z,96645.00
2019-06-15T21:54:27.825Z,96647.47
2019-06-15T21:56:59.599Z,96654.11
2019-06-15T21:59:31.389Z,96665.07
2019-06-15T22:02:03.166Z,96666.91
2019-06-15T22:04:36.846Z,96676.30
2019-06-15T22:07:08.408Z,96681.73
2019-06-15T22:09:40.190Z,96704.44
2019-06-15T22:12:11.969Z,96700.87
2019-06-15T22:14:43.745Z,96709.27
2019-06-15T22:17:16.847Z,96705.58
2019-06-15T22:19:48.768Z,96709.58
2019-06-15T22:22:20.544Z,96698.22
2019-06-15T22:24:52.329Z,96697.20
2019-06-15T22:27:24.108Z,96695.88
2019-06-15T22:29:56.513Z,96697.20
2019-06-15T22:32:28.448Z,96691.57
2019-06-15T22:35:00.698Z,96693.91
2019-06-15T22:37:32.476Z,96691.95
2019-06-15T22:40:08.667Z,96692.08
2019-06-15T22:42:40.444Z,96695.36
2019-06-15T22:45:12.455Z,96693.02
2019-06-15T22:47:46.629Z,96699.67
2019-06-15T22:50:17.850Z,96704.98
2019-06-15T22:52:49.630Z,96719.31
2019-06-15T22:55:21.482Z,96724.81
2019-06-15T22:57:53.265Z,96731.67
2019-06-15T23:00:26.564Z,96734.96
2019-06-15T23:02:58.401Z,96731.94
2019-06-15T23:05:30.185Z,96730.53
2019-06-15T23:08:01.959Z,96733.19
2019-06-15T23:10:36.260Z,96731.73
2019-06-15T23:13:07.228Z,96743.20
2019-06-15T23:15:39.022Z,96755.09
2019-06-15T23:18:10.830Z,96772.52
2019-06-15T23:20:43.083Z,96775.56
2019-06-15T23:23:16.171Z,96772.70
2019-06-15T23:25:48.220Z,96773.34
2019-06-15T23:28:20.981Z,96775.42
2019-06-15T23:30:52.768Z,96779.88
2019-06-15T23:33:26.622Z,96776.37
2019-06-15T23:36:02.586Z,96772.14
2019-06-15T23:38:34.358Z,96777.05
2019-06-15T23:41:06.947Z,96776.29
2019-06-15T23:43:38.891Z,96777.95
2019-06-15T23:46:11.323Z,96779.66
2019-06-15T23:48:43.115Z,96788.64
2019-06-15T23:51:16.998Z,96790.80
2019-06-15T23:53:49.165Z,96794.45
2019-06-15T23:56:20.948Z,96789.28
2019-06-15T23:58:52.724Z,96783.98
